createdAt,value
2019-03-04T00:02:26.530Z,12.50
2019-03-04T00:04:52.782Z,12.97
2019-03-04T00:07:22.154Z,11.90
2019-03-04T00:09:48.455Z,12.53
2019-03-04T00:12:14.697Z,14.40
2019-03-04T00:14:42.979Z,11.97
2019-03-04T00:17:09.448Z,11.00
2019-03-04T00:19:35.742Z,11.80
2019-03-04T00:22:05.870Z,15.27
2019-03-04T00:24:32.364Z,12.47
2019-03-04T00:26:58.646Z,13.63
2019-03-04T00:29:24.792Z,11.13
2019-03-04T00:31:51.068Z,12.90
2019-03-04T00:34:24.069Z,11.73
2019-03-04T00:36:50.492Z,12.23
2019-03-04T00:39:16.584Z,11.47
2019-03-04T00:41:42.818Z,12.63
2019-03-04T00:44:08.990Z,12.97
2019-03-04T00:46:35.186Z,11.80
2019-03-04T00:49:03.979Z,10.77
2019-03-04T00:51:30.286Z,11.60
2019-03-04T00:53:56.402Z,13.80
2019-03-04T00:56:22.609Z,13.90
2019-03-04T00:58:48.776Z,13.67
2019-03-04T01:01:15.096Z,14.00
2019-03-04T01:03:41.214Z,10.43
2019-03-04T01:06:07.424Z,11.63
2019-03-04T01:08:33.809Z,12.03
2019-03-04T01:11:00.138Z,12.43
2019-03-04T01:13:31.753Z,13.50
2019-03-04T01:15:57.973Z,13.97
2019-03-04T01:18:25.396Z,15.47
2019-03-04T01:20:51.820Z,13.23
2019-03-04T01:23:18.027Z,13.00
2019-03-04T01:25:44.390Z,13.80
2019-03-04T01:28:10.569Z,14.50
2019-03-04T01:30:36.902Z,12.60
2019-03-04T01:33:03.258Z,13.00
2019-03-04T01:35:29.409Z,13.10
2019-03-04T01:37:55.626Z,12.10
2019-03-04T01:40:22.400Z,14.37
2019-03-04T01:42:48.541Z,13.20
2019-03-04T01:45:15.883Z,14.10
2019-03-04T01:47:42.344Z,13.30
2019-03-04T01:50:13.190Z,13.87
2019-03-04T01:52:39.572Z,14.97
2019-03-04T01:55:07.778Z,11.87
2019-03-04T01:57:34.161Z,13.27
2019-03-04T02:00:00.375Z,14.50
2019-03-04T02:02:26.543Z,15.43
2019-03-04T02:04:52.769Z,15.00
2019-03-04T02:07:19.620Z,15.53
2019-03-04T02:09:45.823Z,13.27
2019-03-04T02:12:12.041Z,16.13
2019-03-04T02:14:38.174Z,14.90
2019-03-04T02:17:04.350Z,15.10
2019-03-04T02:19:30.704Z,12.30
2019-03-04T02:21:57.107Z,13.50
2019-03-04T02:24:24.232Z,13.30
2019-03-04T02:26:51.582Z,14.17
2019-03-04T02:29:18.760Z,13.20
2019-03-04T02:31:45.095Z,14.13
2019-03-04T02:34:11.381Z,13.43
2019-03-04T02:36:37.677Z,12.17
2019-03-04T02:39:04.827Z,11.43
2019-03-04T02:41:32.926Z,13.63
2019-03-04T02:43:59.169Z,9.43
2019-03-04T02:46:25.547Z,14.17
2019-03-04T02:48:51.890Z,13.80
2019-03-04T02:51:18.224Z,12.17
2019-03-04T02:53:44.588Z,13.20
2019-03-04T02:56:11.477Z,12.83
2019-03-04T02:58:37.697Z,11.73
2019-03-04T03:01:04.170Z,11.30
2019-03-04T03:03:30.387Z,14.87
2019-03-04T03:05:56.685Z,11.17
2019-03-04T03:08:22.817Z,11.77
2019-03-04T03:10:49.188Z,10.97
2019-03-04T03:13:15.469Z,10.70
2019-03-04T03:15:41.600Z,12.80
2019-03-04T03:18:08.006Z,8.70
2019-03-04T03:20:34.307Z,12.00
2019-03-04T03:23:00.607Z,9.90
2019-03-04T03:25:26.755Z,10.83
2019-03-04T03:27:52.910Z,11.17
2019-03-04T03:30:20.460Z,9.87
2019-03-04T03:32:46.741Z,10.00
2019-03-04T03:35:13.025Z,13.43
2019-03-04T03:37:39.318Z,9.97
2019-03-04T03:40:12.390Z,10.67
2019-03-04T03:42:38.695Z,9.37
2019-03-04T03:45:06.899Z,8.53
2019-03-04T03:47:33.050Z,9.60
2019-03-04T03:49:59.241Z,9.43
2019-03-04T03:52:25.450Z,8.60
2019-03-04T03:54:51.801Z,8.30
2019-03-04T03:57:18.092Z,12.20
2019-03-04T03:59:44.397Z,8.50
2019-03-04T04:02:10.610Z,9.27
2019-03-04T04:04:36.886Z,8.60
2019-03-04T04:07:03.002Z,10.70
2019-03-04T04:09:29.629Z,10.07
2019-03-04T04:11:55.768Z,9.63
2019-03-04T04:14:22.153Z,7.10
2019-03-04T04:16:48.328Z,7.80
2019-03-04T04:19:14.542Z,6.43
2019-03-04T04:21:40.658Z,7.93
2019-03-04T04:24:06.795Z,6.53
2019-03-04T04:26:33.040Z,6.73
2019-03-04T04:29:01.107Z,6.90
2019-03-04T04:31:27.512Z,8.17
2019-03-04T04:33:53.781Z,7.30
2019-03-04T04:36:19.892Z,7.70
2019-03-04T04:38:46.102Z,8.20
2019-03-04T04:41:12.533Z,7.37
2019-03-04T04:43:38.639Z,6.90
2019-03-04T04:46:04.927Z,8.00
2019-03-04T04:48:31.146Z,7.40
2019-03-04T04:50:57.232Z,7.13
2019-03-04T04:53:23.342Z,6.93
2019-03-04T04:55:49.552Z,9.07
2019-03-04T04:58:15.672Z,7.10
2019-03-04T05:00:41.928Z,10.63
2019-03-04T05:03:08.145Z,7.03
2019-03-04T05:05:34.343Z,9.63
2019-03-04T05:08:00.420Z,7.63
2019-03-04T05:10:26.661Z,5.87
2019-03-04T05:12:52.865Z,8.07
2019-03-04T05:15:19.365Z,8.00
2019-03-04T05:17:45.785Z,8.10
2019-03-04T05:20:17.863Z,8.73
2019-03-04T05:22:44.034Z,6.43
2019-03-04T05:25:10.353Z,6.80
2019-03-04T05:27:36.448Z,7.20
2019-03-04T05:30:05.551Z,5.53
2019-03-04T05:32:32.911Z,6.50
2019-03-04T05:34:59.099Z,9.77
2019-03-04T05:37:25.249Z,7.77
2019-03-04T05:39:51.587Z,7.20
2019-03-04T05:42:17.858Z,5.23
2019-03-04T05:44:44.031Z,7.90
2019-03-04T05:47:10.238Z,5.30
2019-03-04T05:49:36.535Z,9.80
2019-03-04T05:52:02.893Z,3.93
2019-03-04T05:54:28.969Z,4.23
2019-03-04T05:56:55.119Z,4.70
2019-03-04T05:59:21.204Z,3.07
2019-03-04T06:01:51.105Z,4.43
2019-03-04T06:04:17.426Z,4.57
2019-03-04T06:06:45.715Z,5.23
2019-03-04T06:09:12.862Z,7.00
2019-03-04T06:11:39.116Z,2.77
2019-03-04T06:14:06.425Z,8.07
2019-03-04T06:16:32.735Z,7.83
2019-03-04T06:18:58.950Z,4.23
2019-03-04T06:21:25.168Z,5.57
2019-03-04T06:23:51.341Z,4.47
2019-03-04T06:26:17.743Z,4.07
2019-03-04T06:28:43.952Z,6.93
2019-03-04T06:31:10.110Z,4.27
2019-03-04T06:33:36.331Z,4.00
2019-03-04T06:36:02.674Z,5.33
2019-03-04T06:38:30.019Z,4.53
2019-03-04T06:40:56.365Z,8.27
2019-03-04T06:43:22.600Z,3.33
2019-03-04T06:45:48.703Z,5.83
2019-03-04T06:48:15.021Z,4.70
2019-03-04T06:50:46.880Z,6.80
2019-03-04T06:53:26.107Z,4.60
2019-03-04T06:55:59.029Z,9.07
2019-03-04T06:58:25.129Z,4.23
2019-03-04T07:00:52.526Z,6.40
2019-03-04T07:03:19.839Z,4.93
2019-03-04T07:05:47.640Z,9.10
2019-03-04T07:08:35.171Z,5.30
2019-03-04T07:11:01.279Z,9.87
2019-03-04T07:13:27.619Z,9.27
2019-03-04T07:15:53.970Z,13.63
2019-03-04T07:18:20.053Z,9.97
2019-03-04T07:20:46.306Z,5.73
2019-03-04T07:23:12.540Z,6.97
2019-03-04T07:25:38.822Z,5.80
2019-03-04T07:28:04.921Z,3.17
2019-03-04T07:30:31.001Z,6.87
2019-03-04T07:32:57.332Z,4.63
2019-03-04T07:35:23.621Z,7.47
2019-03-04T07:37:59.752Z,6.30
2019-03-04T07:40:25.915Z,8.60
2019-03-04T07:42:52.318Z,3.67
2019-03-04T07:45:18.528Z,5.77
2019-03-04T07:47:44.640Z,5.30
2019-03-04T07:50:11.088Z,6.27
2019-03-04T07:52:37.465Z,7.03
2019-03-04T07:55:05.487Z,5.73
2019-03-04T07:57:31.865Z,6.87
2019-03-04T07:59:58.702Z,6.83
2019-03-04T08:02:25.168Z,9.20
2019-03-04T08:04:51.308Z,3.47
2019-03-04T08:07:44.539Z,8.03
2019-03-04T08:10:36.705Z,5.47
2019-03-04T08:13:06.539Z,7.60
2019-03-04T08:15:35.140Z,7.67
2019-03-04T08:18:12.318Z,9.13
2019-03-04T08:20:38.615Z,10.77
2019-03-04T08:23:16.420Z,6.20
2019-03-04T08:25:42.802Z,6.50
2019-03-04T08:28:12.457Z,9.03
2019-03-04T08:30:39.934Z,6.70
2019-03-04T08:33:12.304Z,6.87
2019-03-04T08:35:38.761Z,4.70
2019-03-04T08:38:08.737Z,8.87
2019-03-04T08:40:34.954Z,8.57
2019-03-04T08:43:06.000Z,10.10
2019-03-04T08:45:32.319Z,8.97
2019-03-04T08:48:00.449Z,9.37
2019-03-04T08:50:28.063Z,7.87
2019-03-04T08:52:54.181Z,7.70
2019-03-04T08:55:20.652Z,6.17
2019-03-04T08:57:46.956Z,6.90
2019-03-04T09:00:21.654Z,6.33
2019-03-04T09:02:49.085Z,9.57
2019-03-04T09:05:15.602Z,9.97
2019-03-04T09:07:42.039Z,6.87
2019-03-04T09:10:20.019Z,7.87
2019-03-04T09:12:57.747Z,9.60
2019-03-04T09:15:24.239Z,8.17
2019-03-04T09:17:50.559Z,8.20
2019-03-04T09:20:17.550Z,9.97
2019-03-04T09:22:45.070Z,6.83
2019-03-04T09:25:30.372Z,12.13
2019-03-04T09:27:54.082Z,7.57
2019-03-04T09:30:20.809Z,9.60
2019-03-04T09:32:48.216Z,12.47
2019-03-04T09:35:19.806Z,9.67
2019-03-04T09:37:46.223Z,6.87
2019-03-04T09:40:19.842Z,6.87
2019-03-04T09:42:49.875Z,11.33
2019-03-04T09:45:16.178Z,7.83
2019-03-04T09:47:42.535Z,10.73
2019-03-04T09:50:33.206Z,10.07
2019-03-04T09:53:00.313Z,10.90
2019-03-04T09:55:37.547Z,5.83
2019-03-04T09:58:10.690Z,7.00
2019-03-04T10:00:51.410Z,8.97
2019-03-04T10:03:39.835Z,7.73
2019-03-04T10:06:15.612Z,9.60
2019-03-04T10:09:11.128Z,9.97
2019-03-04T10:11:50.580Z,8.77
2019-03-04T10:14:35.807Z,13.87
2019-03-04T10:17:40.769Z,8.37
2019-03-04T10:20:28.892Z,9.57
2019-03-04T10:23:07.692Z,9.67
2019-03-04T10:25:54.532Z,12.90
2019-03-04T10:28:41.248Z,12.40
2019-03-04T10:31:32.115Z,10.83
2019-03-04T10:34:18.668Z,12.00
2019-03-04T10:37:05.101Z,12.73
2019-03-04T10:39:50.251Z,10.57
2019-03-04T10:42:48.000Z,8.77
2019-03-04T10:45:33.205Z,9.07
2019-03-04T10:47:59.583Z,10.53
2019-03-04T10:50:25.917Z,5.97
2019-03-04T10:52:52.277Z,8.10
2019-03-04T10:55:18.669Z,9.07
2019-03-04T10:57:44.931Z,10.97
2019-03-04T11:00:14.448Z,11.07
2019-03-04T11:02:40.779Z,12.20
2019-03-04T11:05:07.245Z,15.93
2019-03-04T11:07:33.626Z,10.80
2019-03-04T11:10:00.283Z,13.63
2019-03-04T11:12:26.515Z,14.13
2019-03-04T11:14:52.877Z,9.87
2019-03-04T11:17:19.247Z,12.07
2019-03-04T11:19:45.708Z,13.90
2019-03-04T11:22:12.137Z,12.20
2019-03-04T11:24:38.375Z,13.10
2019-03-04T11:27:04.829Z,15.70
2019-03-04T11:29:31.116Z,16.37
2019-03-04T11:31:57.575Z,12.47
2019-03-04T11:34:23.948Z,12.37
2019-03-04T11:36:50.260Z,13.03
2019-03-04T11:39:24.229Z,15.57
2019-03-04T11:41:50.435Z,12.50
2019-03-04T11:44:16.598Z,13.97
2019-03-04T11:46:43.107Z,13.90
2019-03-04T11:49:09.452Z,13.20
2019-03-04T11:51:36.167Z,14.47
2019-03-04T11:54:02.914Z,15.77
2019-03-04T11:56:29.519Z,16.30
2019-03-04T11:58:57.069Z,13.47
2019-03-04T12:01:28.145Z,20.73
2019-03-04T12:03:54.391Z,15.53
2019-03-04T12:06:20.637Z,15.30
2019-03-04T12:08:46.913Z,15.87
2019-03-04T12:11:13.116Z,8.87
2019-03-04T12:13:39.341Z,14.07
2019-03-04T12:16:05.656Z,5.67
2019-03-04T12:18:33.306Z,6.10
2019-03-04T12:20:59.838Z,5.37
2019-03-04T12:23:26.291Z,5.33
2019-03-04T12:25:52.844Z,7.03
2019-03-04T12:28:20.299Z,4.47
2019-03-04T12:30:46.655Z,7.33
2019-03-04T12:33:13.137Z,8.60
2019-03-04T12:35:39.413Z,4.27
2019-03-04T12:38:05.842Z,3.50
2019-03-04T12:40:32.168Z,5.70
2019-03-04T12:43:00.579Z,2.60
2019-03-04T12:45:34.065Z,5.60
2019-03-04T12:47:54.983Z,3.23
2019-03-04T12:50:27.403Z,3.30
2019-03-04T12:52:54.556Z,2.67
2019-03-04T12:55:20.863Z,3.87
2019-03-04T12:57:47.122Z,6.47
2019-03-04T13:00:19.175Z,6.27
2019-03-04T13:02:45.484Z,5.67
2019-03-04T13:05:12.632Z,5.57
2019-03-04T13:07:39.013Z,7.70
2019-03-04T13:10:08.848Z,5.33
2019-03-04T13:12:35.196Z,6.97
2019-03-04T13:15:02.080Z,9.50
2019-03-04T13:17:28.338Z,6.87
2019-03-04T13:19:54.650Z,6.70
2019-03-04T13:22:20.950Z,5.47
2019-03-04T13:24:47.312Z,6.47
2019-03-04T13:27:13.485Z,10.50
2019-03-04T13:29:41.744Z,6.83
2019-03-04T13:32:08.180Z,6.63
2019-03-04T13:34:34.437Z,8.83
2019-03-04T13:37:00.661Z,6.10
2019-03-04T13:39:26.871Z,6.43
2019-03-04T13:41:53.187Z,7.60
2019-03-04T13:44:19.336Z,7.90
2019-03-04T13:46:45.698Z,10.27
2019-03-04T13:49:11.981Z,7.20
2019-03-04T13:51:38.746Z,6.67
2019-03-04T13:54:05.114Z,9.23
2019-03-04T13:56:31.429Z,9.47
2019-03-04T13:58:57.722Z,8.07
2019-03-04T14:01:24.622Z,7.70
2019-03-04T14:03:50.993Z,12.90
2019-03-04T14:06:17.347Z,9.67
2019-03-04T14:08:43.648Z,10.60
2019-03-04T14:11:10.105Z,12.87
2019-03-04T14:13:36.219Z,10.80
2019-03-04T14:16:03.171Z,12.37
2019-03-04T14:18:29.491Z,10.43
2019-03-04T14:20:55.929Z,14.10
2019-03-04T14:23:22.363Z,12.50
2019-03-04T14:25:49.869Z,10.90
2019-03-04T14:28:16.217Z,12.27
2019-03-04T14:30:42.528Z,10.07
2019-03-04T14:33:08.861Z,14.37
2019-03-04T14:35:35.025Z,11.30
2019-03-04T14:38:01.228Z,12.10
2019-03-04T14:40:27.567Z,12.27
2019-03-04T14:42:55.177Z,10.10
2019-03-04T14:45:25.922Z,12.23
2019-03-04T14:47:52.066Z,12.60
2019-03-04T14:50:19.725Z,12.50
2019-03-04T14:52:46.048Z,10.67
2019-03-04T14:55:19.839Z,9.67
2019-03-04T14:57:46.261Z,11.93
2019-03-04T15:00:16.087Z,14.43
2019-03-04T15:02:42.760Z,13.73
2019-03-04T15:05:10.173Z,10.37
2019-03-04T15:07:36.655Z,14.27
2019-03-04T15:10:06.723Z,16.70
2019-03-04T15:12:34.252Z,15.33
2019-03-04T15:15:00.679Z,14.03
2019-03-04T15:17:27.822Z,9.93
2019-03-04T15:19:54.138Z,13.10
2019-03-04T15:22:20.352Z,13.77
2019-03-04T15:24:46.447Z,13.63
2019-03-04T15:27:12.805Z,14.53
2019-03-04T15:29:39.166Z,18.23
2019-03-04T15:32:05.665Z,15.37
2019-03-04T15:34:31.790Z,12.83
2019-03-04T15:36:58.049Z,14.97
2019-03-04T15:39:24.263Z,14.43
2019-03-04T15:41:50.532Z,13.40
2019-03-04T15:44:16.772Z,17.57
2019-03-04T15:46:43.053Z,13.83
2019-03-04T15:49:09.398Z,15.93
2019-03-04T15:51:35.673Z,16.00
2019-03-04T15:54:02.118Z,10.10
2019-03-04T15:56:28.446Z,14.87
2019-03-04T15:58:54.701Z,12.30
2019-03-04T16:01:21.201Z,14.40
2019-03-04T16:03:47.491Z,13.10
2019-03-04T16:06:13.906Z,15.90
2019-03-04T16:08:40.286Z,17.87
2019-03-04T16:11:10.489Z,16.10
2019-03-04T16:13:36.786Z,15.20
2019-03-04T16:16:06.078Z,16.00
2019-03-04T16:18:32.421Z,16.27
2019-03-04T16:20:58.742Z,16.47
2019-03-04T16:23:25.399Z,16.40
2019-03-04T16:25:52.127Z,14.87
2019-03-04T16:28:24.440Z,19.37
2019-03-04T16:30:55.847Z,15.57
2019-03-04T16:33:23.182Z,18.43
2019-03-04T16:35:49.392Z,17.50
2019-03-04T16:38:16.819Z,16.00
2019-03-04T16:40:43.178Z,19.97
2019-03-04T16:43:09.491Z,18.27
2019-03-04T16:45:35.771Z,17.07
2019-03-04T16:48:07.894Z,17.97
2019-03-04T16:50:37.020Z,16.87
2019-03-04T16:53:12.493Z,15.83
2019-03-04T16:55:46.057Z,16.03
2019-03-04T16:58:15.372Z,14.77
2019-03-04T17:00:41.978Z,15.17
2019-03-04T17:03:09.406Z,16.93
2019-03-04T17:05:38.229Z,17.43
2019-03-04T17:10:51.794Z,16.20
2019-03-04T17:13:18.235Z,16.30
2019-03-04T17:15:44.580Z,17.80
2019-03-04T17:18:10.759Z,16.03
2019-03-04T17:20:37.096Z,13.73
2019-03-04T17:23:12.550Z,22.40
2019-03-04T17:25:45.458Z,18.07
2019-03-04T17:28:24.139Z,18.97
2019-03-04T17:30:50.738Z,14.80
2019-03-04T17:33:17.179Z,15.27
2019-03-04T17:35:50.168Z,12.43
2019-03-04T17:38:17.321Z,18.20
2019-03-04T17:40:44.976Z,16.60
2019-03-04T17:43:11.279Z,16.70
2019-03-04T17:45:37.754Z,20.43
2019-03-04T17:48:04.285Z,20.73
2019-03-04T17:50:35.765Z,16.97
2019-03-04T17:53:04.490Z,18.20
2019-03-04T17:55:30.927Z,20.47
2019-03-04T17:57:57.274Z,18.53
2019-03-04T18:00:23.667Z,15.90
2019-03-04T18:02:50.166Z,15.50
2019-03-04T18:05:16.575Z,20.43
2019-03-04T18:07:42.965Z,10.77
2019-03-04T18:10:13.055Z,14.93
2019-03-04T18:12:39.409Z,16.10
2019-03-04T18:15:09.406Z,12.77
2019-03-04T18:17:35.852Z,16.93
2019-03-04T18:20:04.817Z,13.90
2019-03-04T18:22:31.959Z,16.13
2019-03-04T18:24:58.191Z,14.37
2019-03-04T18:27:24.509Z,9.37
2019-03-04T18:29:57.176Z,15.37
2019-03-04T18:32:30.123Z,12.53
2019-03-04T18:35:24.031Z,19.00
2019-03-04T18:38:09.138Z,16.40
2019-03-04T18:40:55.955Z,17.00
2019-03-04T18:43:26.012Z,14.10
2019-03-04T18:46:17.064Z,15.17
2019-03-04T18:48:54.025Z,15.07
2019-03-04T18:51:20.412Z,17.60
2019-03-04T18:53:46.842Z,17.57
2019-03-04T18:56:21.702Z,16.13
2019-03-04T18:58:41.366Z,18.57
2019-03-04T19:01:07.856Z,14.57
2019-03-04T19:03:35.079Z,15.70
2019-03-04T19:06:02.052Z,15.00
2019-03-04T19:08:28.438Z,14.13
2019-03-04T19:10:54.803Z,15.83
2019-03-04T19:13:21.235Z,17.97
2019-03-04T19:15:47.611Z,16.33
2019-03-04T19:18:14.092Z,19.10
2019-03-04T19:20:40.620Z,18.93
2019-03-04T19:23:07.060Z,15.10
2019-03-04T19:25:33.296Z,16.73
2019-03-04T19:28:00.841Z,19.73
2019-03-04T19:30:27.350Z,12.57
2019-03-04T19:32:53.805Z,13.53
2019-03-04T19:35:21.515Z,13.77
2019-03-04T19:37:47.917Z,15.03
2019-03-04T19:40:15.367Z,15.40
2019-03-04T19:42:41.808Z,13.67
2019-03-04T19:45:20.202Z,14.57
2019-03-04T19:47:46.903Z,14.73
2019-03-04T19:50:14.342Z,14.10
2019-03-04T19:52:40.758Z,15.83
2019-03-04T19:55:12.616Z,11.33
2019-03-04T19:57:39.624Z,12.83
2019-03-04T20:00:09.721Z,14.97
2019-03-04T20:02:36.352Z,14.00
2019-03-04T20:05:04.490Z,11.60
2019-03-04T20:07:33.107Z,12.53
2019-03-04T20:09:59.617Z,13.20
2019-03-04T20:12:27.963Z,13.63
2019-03-04T20:14:54.203Z,15.57
2019-03-04T20:17:20.424Z,15.27
2019-03-04T20:19:46.901Z,16.83
2019-03-04T20:22:13.654Z,13.67
2019-03-04T20:24:41.114Z,14.93
2019-03-04T20:27:07.587Z,15.90
2019-03-04T20:29:33.920Z,19.33
2019-03-04T20:32:00.168Z,20.63
2019-03-04T20:34:26.756Z,15.57
2019-03-04T20:36:53.101Z,13.17
2019-03-04T20:39:20.014Z,12.40
2019-03-04T20:41:46.454Z,17.67
2019-03-04T20:44:13.344Z,15.13
2019-03-04T20:46:40.079Z,13.90
2019-03-04T20:49:09.456Z,11.20
2019-03-04T20:51:35.832Z,14.90
2019-03-04T20:54:02.738Z,13.90
2019-03-04T20:56:30.862Z,12.63
2019-03-04T20:58:57.425Z,14.90
2019-03-04T21:01:23.872Z,15.73
2019-03-04T21:03:50.393Z,12.53
2019-03-04T21:06:16.875Z,13.53
2019-03-04T21:08:43.363Z,16.07
2019-03-04T21:11:10.826Z,13.53
2019-03-04T21:13:37.240Z,14.47
2019-03-04T21:16:04.050Z,17.20
2019-03-04T21:18:30.493Z,14.37
2019-03-04T21:20:58.121Z,13.90
2019-03-04T21:23:24.568Z,12.43
2019-03-04T21:25:57.462Z,12.40
2019-03-04T21:28:33.563Z,18.93
2019-03-04T21:31:37.484Z,14.50
2019-03-04T21:34:07.458Z,12.97
2019-03-04T21:37:03.324Z,15.13
2019-03-04T21:39:50.285Z,17.87
2019-03-04T21:42:26.625Z,16.23
2019-03-04T21:45:00.147Z,16.00
2019-03-04T21:47:30.406Z,12.93
2019-03-04T21:49:56.783Z,14.10
2019-03-04T21:52:29.952Z,15.63
2019-03-04T21:54:56.404Z,16.23
2019-03-04T21:57:26.344Z,21.20
2019-03-04T21:59:52.736Z,14.97
2019-03-04T22:02:22.663Z,12.30
2019-03-04T22:04:49.086Z,16.67
2019-03-04T22:07:15.519Z,16.37
2019-03-04T22:09:41.940Z,18.03
2019-03-04T22:12:12.766Z,16.47
2019-03-04T22:14:39.150Z,20.53
2019-03-04T22:17:05.479Z,20.30
2019-03-04T22:19:32.907Z,19.40
2019-03-04T22:21:59.256Z,15.20
2019-03-04T22:24:25.609Z,19.07
2019-03-04T22:26:51.927Z,12.93
2019-03-04T22:29:18.298Z,17.10
2019-03-04T22:31:44.586Z,16.70
2019-03-04T22:34:10.896Z,18.07
2019-03-04T22:36:37.087Z,15.73
2019-03-04T22:39:05.494Z,15.57
2019-03-04T22:41:33.643Z,15.30
2019-03-04T22:43:59.941Z,17.40
2019-03-04T22:46:26.266Z,18.13
2019-03-04T22:48:52.567Z,19.07
2019-03-04T22:51:18.850Z,19.50
2019-03-04T22:53:45.149Z,17.87
2019-03-04T22:56:11.502Z,17.37
2019-03-04T22:58:37.812Z,15.67
2019-03-04T23:01:09.604Z,15.87
2019-03-04T23:03:36.841Z,17.90
2019-03-04T23:06:09.921Z,15.33
2019-03-04T23:08:36.249Z,16.87
2019-03-04T23:11:02.690Z,19.33
2019-03-04T23:13:52.662Z,18.87
2019-03-04T23:16:21.611Z,18.10
2019-03-04T23:18:47.708Z,20.77
2019-03-04T23:21:17.070Z,21.07
2019-03-04T23:23:43.165Z,20.20
2019-03-04T23:26:10.451Z,22.20
2019-03-04T23:28:36.669Z,23.10
2019-03-04T23:31:03.012Z,24.27
2019-03-04T23:33:29.455Z,23.73
2019-03-04T23:35:55.770Z,24.63
2019-03-04T23:38:22.103Z,30.53
2019-03-04T23:40:49.424Z,23.80
2019-03-04T23:43:15.769Z,28.13
2019-03-04T23:45:41.966Z,26.80
2019-03-04T23:48:08.288Z,26.97
2019-03-04T23:50:34.424Z,23.77
2019-03-04T23:53:00.672Z,24.80
2019-03-04T23:55:26.984Z,27.67
2019-03-04T23:57:53.178Z,26.77
